Arcata, CA (95521)

6:17 AM PDT on May 24, 2015 (GMT -0700)
KD8LRX | | Change Station
CLOSE
Current Station
Personal Weather Station
Location: Arcata, CA
Elevation: 33 ft
Nearby Weather Stations

Elev 33 ft 40.91 °N, 124.08 °W | Updated 10 minutes ago

Overcast
Overcast
51.8 °F
Feels Like 51.8 °F
N
0.0
Wind Variable Wind from ESE

Today
High -- | Low -- °F
--% Chance of Precip.
Yesterday
High -- | Low -- °F
Precip. -- in
5:51 AM 8:35 PM
Waxing Crescent, 39% visible
Pressure 30.07 in
Visibility 10.0 miles
Clouds Overcast 800 ft
Dew Point 50 °F
Humidity 92%
Rainfall 0.89 in
Snow Depth Not available.
UV 0 out of 12
Pollen 7.10 out of 12
Air Quality Not available.
Flu Activity Sporadic
METAR KACV 241253Z AUTO 00000KT 10SM OVC008 11/09 A3006 RMK AO2 SLP183 T01060094 $

More Conditions Fewer Conditions

Pressure 30.07 in
Visibility 10.0 miles
Clouds Overcast 800 ft
Dew Point 50 °F
Humidity 92%
Rainfall 0.89 in
Snow Depth Not available.
UV 0 out of 12
Pollen 7.10 out of 12
Air Quality Not available.
Flu Activity Sporadic
METAR KACV 241253Z AUTO 00000KT 10SM OVC008 11/09 A3006 RMK AO2 SLP183 T01060094 $

More Conditions Fewer Conditions

10-Day Weather Forecast

Almanac

Astronomy

May. 24, 2015 Rise Set
Actual Time
Civil Twilight
Nautical Twilight
Astronomical Twilight
Moon
Length of Visible Light
Length of Day
Tomorrow will be .
, % of the Moon is Illuminated

Today's Extremes

State Highs State Lows

Community

WunderPhotos

Upload Photos

1,823,734 photos uploaded!

WunderBlogs® & News

Nearby

Air Quality

  Air Quality AQ Index Pollutant
Not available.

Snow Depth

Station Depth Elevation

Earthquake Activity

City Distance Mag. Time & Date
Minimum magnitude displayed is 2.5.

Coastal Water Temperatures

Place Temperature

Stations

Nearby Weather Stations

Station Location Temp. Windchill Dew Point Humidity Wind Precip. Elev Updated Type